McCarran International Airport
KLAS : now visible

Aeroporto :











RITROVATECI SU...

 
LOGIN :

Iscrizione | Disclaimer

   EN    FR    IT 

 









Sommario :    VFR   VFR Marginale   IFR   IFR Intensivo   IFR Molto Intensivo
Visibilità : 
Base nubi : 
>= 8 km
>= 3000ft
5 / 8 km
1000 / 3000 ft
1500m / 5 km
500 / 1000 ft
800 / 1500m
200 / 500 ft
< 800m
< 200 ft
Simboli :   Temporali  Nebbia  Neve Forte  Precipitazioni Forti  Vento > 20 kt






- Altitudine del aeroporto : 2181 ft
- Codice IATA : LAS


KLAS - McCarran International

ULTIMO METAR :
  • 271956Z 36013G20KT 10SM FEW250 19/M08 A3022 RMK AO2 SLP226 T01891078

METARs OBSOLETI :
  • 271856Z 02014KT 10SM CLR 18/M07 A3025 RMK AO2 SLP237 T01781072
  • 271756Z 03011KT 10SM CLR 17/M03 A3026 RMK AO2 SLP238 T01671033 10167 20106 51013

TAF KLAS
Valido dal 27 a 21 ore il 29 a 00 ore UTC


272047Z 2721/2824 35014G22KT P6SM SKC
FM272300 36011KT P6SM SCT250
FM280200 24007KT P6SM SCT250
FM281600 08005KT P6SM SCT250



MetMap, La meteo Aeronautica in un colpo d'occhio ! - Copyright ORBIFLY Dicembre 2007 - Disclaimer

ORBIFLY MET'MAP TEAM :

Programmazione e sviluppo : Alexandra Zaïnal
Concezione : Baudouin d'Aumeries
Aiuto per la programmazione : Marc-Olivier Méhu
Supporto tecnico e logistico : Manuel Goepfert
Aiuto per la traduzione : Arnaldo La Scala

Contatto : metmap@orbifly.com




FONTI E CREDITI :

   NOAA       Earth
Advisory